Time;durP1;ratioP1;P1;durP2;ratioP2;P2;SDS_P1;SDS_P2;PMS_P1;PMS_P2;Temp;Humidity;BMP_temperature;BMP_pressure;BME280_temperature;BME280_humidity;BME280_pressure;Samples;Min_cycle;Max_cycle;Signal;HPM_P1;HPM_P2
2024/04/25 00:01:14;;;;;;;21.90;19.57;;;5.00;99.90;;;;;;5243834;27;20460;-56
2024/04/25 00:03:40;;;;;;;22.70;18.17;;;4.90;99.90;;;;;;5247826;27;20241;-53
2024/04/25 00:06:06;;;;;;;25.33;20.37;;;4.90;99.90;;;;;;5253888;27;20229;-53
2024/04/25 00:08:31;;;;;;;24.13;20.20;;;4.80;99.90;;;;;;5240518;27;20225;-60
2024/04/25 00:10:57;;;;;;;24.13;21.53;;;4.80;99.90;;;;;;5240042;27;20249;-54
2024/04/25 00:13:26;;;;;;;22.70;18.87;;;4.70;99.90;;;;;;5240626;27;20713;-55
2024/04/25 00:15:55;;;;;;;22.50;18.97;;;4.70;99.90;;;;;;5240086;27;20229;-54
2024/04/25 00:18:21;;;;;;;20.23;17.97;;;4.70;99.90;;;;;;5211701;27;21033;-52
2024/04/25 00:20:47;;;;;;;27.80;21.50;;;4.60;99.90;;;;;;5247752;27;20522;-51
2024/04/25 00:23:12;;;;;;;24.33;18.63;;;4.60;99.90;;;;;;5251565;27;20857;-55
2024/04/25 00:25:38;;;;;;;21.47;19.30;;;4.70;99.90;;;;;;5242640;27;20531;-55
2024/04/25 00:28:04;;;;;;;23.20;18.53;;;4.70;99.90;;;;;;5239952;27;20340;-53
2024/04/25 00:30:30;;;;;;;21.77;18.23;;;4.80;99.90;;;;;;5240475;27;20230;-60
2024/04/25 00:32:57;;;;;;;20.40;17.10;;;4.80;99.90;;;;;;5241546;27;20225;-56
2024/04/25 00:35:23;;;;;;;24.90;18.63;;;4.80;99.90;;;;;;5244179;27;20593;-55
2024/04/25 00:37:49;;;;;;;20.83;17.80;;;4.90;99.90;;;;;;5239988;27;20968;-60
2024/04/25 00:40:14;;;;;;;23.53;18.47;;;4.90;99.90;;;;;;5239152;27;20551;-54
2024/04/25 00:42:40;;;;;;;20.60;17.30;;;4.90;99.90;;;;;;5240277;27;20233;-59
2024/04/25 00:45:06;;;;;;;22.20;18.17;;;4.90;99.90;;;;;;5239793;27;20253;-54
2024/04/25 00:47:32;;;;;;;19.63;16.77;;;5.00;99.90;;;;;;5243584;27;20234;-59
2024/04/25 00:49:59;;;;;;;21.50;17.13;;;5.00;99.90;;;;;;5244458;27;20284;-60
2024/04/25 00:52:26;;;;;;;26.90;20.10;;;4.90;99.90;;;;;;5245593;27;20527;-59
2024/04/25 00:54:51;;;;;;;23.03;16.90;;;4.90;99.90;;;;;;5266472;27;20471;-60
2024/04/25 00:57:21;;;;;;;24.03;20.00;;;4.90;99.90;;;;;;5244824;27;20566;-55
2024/04/25 00:59:49;;;;;;;19.50;15.80;;;4.80;99.90;;;;;;5240022;27;20461;-62
2024/04/25 01:02:16;;;;;;;22.23;17.70;;;4.80;99.90;;;;;;5239611;27;20834;-62
2024/04/25 01:04:43;;;;;;;18.97;16.87;;;4.80;99.90;;;;;;5239481;27;20473;-59
2024/04/25 01:07:09;;;;;;;21.53;17.73;;;4.80;99.90;;;;;;5239453;27;20466;-61
2024/04/25 01:09:35;;;;;;;25.73;18.13;;;4.70;99.90;;;;;;5244582;27;20934;-61
2024/04/25 01:12:02;;;;;;;24.60;20.07;;;4.60;99.90;;;;;;5239469;27;20839;-60
2024/04/25 01:14:28;;;;;;;21.53;19.07;;;4.60;99.90;;;;;;5239931;27;20582;-59
2024/04/25 01:16:54;;;;;;;22.43;18.07;;;4.60;99.90;;;;;;5239427;27;20481;-62
2024/04/25 01:19:20;;;;;;;25.00;17.53;;;4.50;99.90;;;;;;5239641;27;21067;-61
2024/04/25 01:21:47;;;;;;;21.70;18.13;;;4.60;99.90;;;;;;5239323;27;20233;-62
2024/04/25 01:24:20;;;;;;;23.90;18.47;;;4.60;99.90;;;;;;5238946;27;20561;-60
2024/04/25 01:26:48;;;;;;;20.60;16.90;;;4.60;99.90;;;;;;5246995;27;20467;-60
2024/04/25 01:29:14;;;;;;;23.70;17.57;;;4.60;99.90;;;;;;5253024;27;20533;-59
2024/04/25 01:31:42;;;;;;;20.13;15.70;;;4.60;99.90;;;;;;5239075;27;20469;-60
2024/04/25 01:34:08;;;;;;;21.43;17.10;;;4.60;99.90;;;;;;5239731;27;21146;-60
2024/04/25 01:36:37;;;;;;;22.40;18.13;;;4.60;99.90;;;;;;5249092;27;20479;-60
2024/04/25 01:39:06;;;;;;;25.87;17.97;;;4.50;99.90;;;;;;5238622;27;20291;-60
2024/04/25 01:41:31;;;;;;;24.83;17.93;;;4.40;99.90;;;;;;5238681;27;20486;-59
2024/04/25 01:43:57;;;;;;;23.50;18.50;;;4.40;99.90;;;;;;5240423;27;20457;-61
2024/04/25 01:46:22;;;;;;;23.27;17.67;;;4.40;99.90;;;;;;5239119;27;20820;-61
2024/04/25 01:48:48;;;;;;;19.57;16.87;;;4.30;99.90;;;;;;5244870;27;20573;-59
2024/04/25 01:51:15;;;;;;;27.73;19.33;;;4.30;99.90;;;;;;5237129;27;20349;-61
2024/04/25 01:53:41;;;;;;;21.67;19.33;;;4.30;99.90;;;;;;5237917;27;20771;-61
2024/04/25 01:56:06;;;;;;;20.77;18.43;;;4.30;99.90;;;;;;5238453;27;20462;-60
2024/04/25 01:58:32;;;;;;;22.27;17.27;;;4.20;99.90;;;;;;5238397;27;20225;-58
2024/04/25 02:00:57;;;;;;;20.53;16.23;;;4.20;99.90;;;;;;5238536;27;20257;-61
2024/04/25 02:03:23;;;;;;;21.90;16.83;;;4.20;99.90;;;;;;5248813;27;20234;-60
2024/04/25 02:05:49;;;;;;;21.57;18.33;;;4.10;99.90;;;;;;5249035;27;20377;-59
2024/04/25 02:08:14;;;;;;;23.23;16.70;;;4.10;99.90;;;;;;5250608;27;20289;-60
2024/04/25 02:10:40;;;;;;;22.97;17.13;;;4.10;99.90;;;;;;5245311;27;20694;-57
2024/04/25 02:13:05;;;;;;;20.90;16.90;;;4.10;99.90;;;;;;5253606;27;20229;-60
2024/04/25 02:15:31;;;;;;;17.03;15.07;;;4.10;99.90;;;;;;5251676;27;20353;-60
2024/04/25 02:17:57;;;;;;;21.57;15.97;;;4.10;99.90;;;;;;5238639;27;20245;-61
2024/04/25 02:25:51;;;;;;;20.73;14.57;;;4.00;99.90;;;;;;5238853;27;20660;-61
2024/04/25 02:28:16;;;;;;;17.03;14.50;;;4.10;99.90;;;;;;5238163;27;20465;-61
2024/04/25 02:30:42;;;;;;;17.03;14.03;;;4.00;99.90;;;;;;5263313;27;20346;-60
2024/04/25 02:33:07;;;;;;;16.07;14.03;;;4.10;99.90;;;;;;5260763;27;20586;-61
2024/04/25 02:35:33;;;;;;;16.33;13.10;;;4.10;99.90;;;;;;5257505;27;20271;-61
2024/04/25 02:37:59;;;;;;;19.20;13.20;;;4.00;99.90;;;;;;5214110;27;20411;-61
2024/04/25 02:40:24;;;;;;;16.60;13.37;;;4.00;99.90;;;;;;5238444;27;20339;-61
2024/04/25 02:42:50;;;;;;;16.23;12.73;;;3.90;99.90;;;;;;5251528;27;20245;-61
2024/04/25 02:45:15;;;;;;;21.27;15.23;;;3.90;99.90;;;;;;5255558;27;20369;-60
2024/04/25 02:47:41;;;;;;;15.47;12.13;;;3.90;99.90;;;;;;5256906;27;20625;-60
2024/04/25 02:50:10;;;;;;;17.80;12.10;;;3.90;99.90;;;;;;5240562;27;20237;-59
2024/04/25 02:52:36;;;;;;;15.40;12.50;;;3.90;99.90;;;;;;5249089;27;20233;-62
2024/04/25 02:55:01;;;;;;;15.60;12.40;;;3.90;99.90;;;;;;5260376;27;20565;-62
2024/04/25 02:57:27;;;;;;;15.20;11.43;;;3.90;99.90;;;;;;5246036;27;20477;-59
2024/04/25 02:59:52;;;;;;;17.17;12.60;;;3.90;99.90;;;;;;5245529;27;20288;-59
2024/04/25 03:02:18;;;;;;;15.33;12.60;;;4.00;99.90;;;;;;5252339;27;20233;-59
2024/04/25 03:04:43;;;;;;;14.40;12.30;;;4.00;99.90;;;;;;5254574;27;20332;-60
2024/04/25 03:07:09;;;;;;;12.40;10.83;;;4.10;99.90;;;;;;5259666;27;20229;-60
2024/04/25 03:09:35;;;;;;;16.70;12.20;;;4.10;99.90;;;;;;5250935;27;20264;-59
2024/04/25 03:12:00;;;;;;;13.80;11.20;;;4.20;99.90;;;;;;5246105;27;20682;-60
2024/04/25 03:14:26;;;;;;;12.83;10.73;;;4.20;99.90;;;;;;5247260;27;20288;-61
2024/04/25 03:16:52;;;;;;;12.80;11.50;;;4.30;99.90;;;;;;5256299;27;20294;-62
2024/04/25 03:19:19;;;;;;;14.83;11.67;;;4.30;99.90;;;;;;5256808;27;20299;-61
2024/04/25 03:21:44;;;;;;;13.27;10.20;;;4.30;99.90;;;;;;5250659;27;20464;-60
2024/04/25 03:24:10;;;;;;;15.87;10.87;;;4.40;99.90;;;;;;5242851;27;20976;-60
2024/04/25 03:26:36;;;;;;;13.30;10.40;;;4.40;99.90;;;;;;5241179;27;20279;-61
2024/04/25 03:29:01;;;;;;;12.00;10.70;;;4.40;99.90;;;;;;5247122;27;20449;-62
2024/04/25 03:31:27;;;;;;;14.77;13.40;;;4.40;99.90;;;;;;5252486;27;20377;-60
2024/04/25 03:33:52;;;;;;;15.47;10.47;;;4.40;99.90;;;;;;5252898;27;20400;-61
2024/04/25 03:36:18;;;;;;;14.63;9.90;;;4.40;99.90;;;;;;5268212;27;20233;-61
2024/04/25 03:38:44;;;;;;;13.83;9.70;;;4.40;99.90;;;;;;5265569;27;20236;-61
2024/04/25 03:41:16;;;;;;;10.10;9.00;;;4.40;99.90;;;;;;5262013;27;20233;-60
2024/04/25 03:43:42;;;;;;;15.40;10.67;;;4.30;99.90;;;;;;5268987;27;20225;-62
2024/04/25 03:46:08;;;;;;;9.80;8.30;;;4.40;99.90;;;;;;5268520;27;20860;-60
2024/04/25 03:48:34;;;;;;;9.63;8.63;;;4.40;99.90;;;;;;5260422;27;20465;-61
2024/04/25 03:50:59;;;;;;;9.30;8.40;;;4.40;99.90;;;;;;5246098;27;20281;-57
2024/04/25 03:53:25;;;;;;;12.00;9.70;;;4.40;99.90;;;;;;5253537;27;20245;-60
2024/04/25 03:55:50;;;;;;;10.13;8.43;;;4.40;99.90;;;;;;5252411;27;20228;-60
2024/04/25 03:58:16;;;;;;;12.77;9.20;;;4.40;99.90;;;;;;5250013;27;20225;-61
2024/04/25 04:00:42;;;;;;;9.90;7.40;;;4.40;99.90;;;;;;5251480;27;20572;-60
2024/04/25 04:03:07;;;;;;;8.17;7.40;;;4.40;99.90;;;;;;5258183;27;20225;-61
2024/04/25 04:05:33;;;;;;;12.33;8.80;;;4.40;99.90;;;;;;5258801;27;20697;-61
2024/04/25 04:07:58;;;;;;;10.80;7.83;;;4.40;99.90;;;;;;5257718;27;20483;-60
2024/04/25 04:10:25;;;;;;;11.53;7.83;;;4.40;99.90;;;;;;5248899;27;20233;-61
2024/04/25 04:12:51;;;;;;;11.40;8.13;;;4.40;99.90;;;;;;5253206;27;21095;-60
2024/04/25 04:15:17;;;;;;;10.37;6.97;;;4.40;99.90;;;;;;5245698;27;20263;-61
2024/04/25 04:17:43;;;;;;;8.10;6.90;;;4.40;99.90;;;;;;5247010;27;20264;-60
2024/04/25 04:20:09;;;;;;;8.50;7.40;;;4.40;99.90;;;;;;5252787;27;20506;-60
2024/04/25 04:22:34;;;;;;;7.80;7.00;;;4.40;99.90;;;;;;5259758;27;20488;-60
2024/04/25 04:25:00;;;;;;;7.67;6.70;;;4.40;99.90;;;;;;5257329;27;20365;-58
2024/04/25 04:27:25;;;;;;;7.83;7.00;;;4.50;99.90;;;;;;5252521;27;20259;-60
2024/04/25 04:29:51;;;;;;;6.93;6.23;;;4.50;99.90;;;;;;5251138;27;20288;-60
2024/04/25 04:32:17;;;;;;;7.90;7.10;;;4.50;99.90;;;;;;5246786;27;20674;-59
2024/04/25 04:34:44;;;;;;;7.33;6.40;;;4.50;99.90;;;;;;5247520;27;20275;-58
2024/04/25 04:37:11;;;;;;;7.87;6.63;;;4.50;99.90;;;;;;5245279;27;20276;-61
2024/04/25 04:39:37;;;;;;;7.63;6.87;;;4.60;99.90;;;;;;5243217;27;20897;-61
2024/04/25 04:42:02;;;;;;;7.23;6.03;;;4.60;99.90;;;;;;5253511;27;20616;-59
2024/04/25 04:44:28;;;;;;;7.90;6.80;;;4.60;99.90;;;;;;5257683;27;20414;-61
2024/04/25 04:46:54;;;;;;;7.33;5.90;;;4.70;99.90;;;;;;5260202;27;20350;-60
2024/04/25 04:49:19;;;;;;;6.53;5.37;;;4.70;99.90;;;;;;5248207;27;20228;-58
2024/04/25 04:51:45;;;;;;;8.13;5.90;;;4.70;99.90;;;;;;5258713;27;20236;-57
2024/04/25 04:54:10;;;;;;;7.90;7.10;;;4.70;99.90;;;;;;5248078;27;20325;-60
2024/04/25 04:56:37;;;;;;;8.73;6.80;;;4.80;99.90;;;;;;5257535;27;20672;-61
2024/04/25 04:59:03;;;;;;;6.23;5.73;;;4.80;99.90;;;;;;5257846;27;20281;-59
2024/04/25 05:01:28;;;;;;;7.07;6.20;;;4.80;99.90;;;;;;5263038;27;20465;-61
2024/04/25 05:03:54;;;;;;;9.30;6.73;;;5.00;99.90;;;;;;5252317;27;20720;-59
2024/04/25 05:06:20;;;;;;;7.80;7.00;;;5.10;99.90;;;;;;5253506;27;20340;-60
2024/04/25 05:08:45;;;;;;;7.33;6.53;;;5.10;99.90;;;;;;5239877;27;20639;-57
2024/04/25 05:11:11;;;;;;;6.90;6.13;;;5.10;99.90;;;;;;5239629;27;20320;-62
2024/04/25 05:13:36;;;;;;;7.43;6.73;;;5.10;99.90;;;;;;5239554;27;20233;-61
2024/04/25 05:16:02;;;;;;;8.83;7.67;;;5.20;99.90;;;;;;5240021;27;20284;-61
2024/04/25 05:18:28;;;;;;;10.97;7.97;;;5.20;99.90;;;;;;5244375;27;20692;-60
2024/04/25 05:20:54;;;;;;;8.73;6.70;;;5.20;99.90;;;;;;5256978;27;20515;-59
2024/04/25 05:23:19;;;;;;;7.80;7.00;;;5.20;99.90;;;;;;5260974;27;20387;-58
2024/04/25 05:25:45;;;;;;;10.13;7.67;;;5.50;99.90;;;;;;5255855;27;20289;-61
2024/04/25 05:28:10;;;;;;;10.10;7.20;;;5.60;99.90;;;;;;5255062;27;20282;-61
2024/04/25 05:30:36;;;;;;;8.93;8.03;;;5.60;99.90;;;;;;5258400;27;20232;-60
2024/04/25 05:33:03;;;;;;;8.80;7.80;;;5.50;99.90;;;;;;5257150;27;20639;-62
2024/04/25 05:35:29;;;;;;;9.93;9.03;;;5.60;99.90;;;;;;5242983;27;20234;-61
2024/04/25 05:37:55;;;;;;;10.33;7.97;;;5.60;99.90;;;;;;5239504;27;20473;-60
2024/04/25 05:40:20;;;;;;;8.80;7.83;;;5.50;99.90;;;;;;5246692;27;21170;-60
2024/04/25 05:42:46;;;;;;;7.97;7.17;;;5.60;99.90;;;;;;5239001;27;20230;-65
2024/04/25 05:45:12;;;;;;;9.87;7.40;;;5.70;99.90;;;;;;5238706;27;20225;-59
2024/04/25 05:47:38;;;;;;;9.90;7.30;;;5.70;99.90;;;;;;5247841;27;20225;-61
2024/04/25 05:50:03;;;;;;;10.10;7.60;;;5.80;99.90;;;;;;5262402;27;20284;-57
2024/04/25 05:52:29;;;;;;;7.77;7.07;;;5.90;99.90;;;;;;5267029;27;20526;-60
2024/04/25 05:54:55;;;;;;;10.40;9.30;;;6.00;99.90;;;;;;5268354;27;20369;-60
2024/04/25 05:57:20;;;;;;;7.50;6.70;;;6.10;99.90;;;;;;5231172;27;20551;-60
2024/04/25 05:59:46;;;;;;;11.07;7.13;;;6.40;99.90;;;;;;5268778;27;20728;-59
2024/04/25 06:02:11;;;;;;;9.20;7.10;;;6.90;99.90;;;;;;5255252;27;20265;-61
2024/04/25 06:04:37;;;;;;;8.20;7.00;;;6.90;99.90;;;;;;5238627;27;20232;-61
2024/04/25 06:07:03;;;;;;;8.63;6.60;;;7.20;99.90;;;;;;5253996;27;20752;-61
2024/04/25 06:09:28;;;;;;;8.20;6.23;;;7.40;99.90;;;;;;5261909;27;20765;-58
2024/04/25 06:11:54;;;;;;;8.13;7.10;;;7.70;99.90;;;;;;5257472;27;20682;-59
2024/04/25 06:14:25;;;;;;;7.27;6.40;;;8.10;99.90;;;;;;5264184;27;20367;-60
2024/04/25 06:16:51;;;;;;;8.13;5.63;;;8.10;99.90;;;;;;5188620;27;20237;-66
2024/04/25 06:19:16;;;;;;;8.60;6.70;;;8.50;99.90;;;;;;5212675;27;20450;-64
2024/04/25 06:21:42;;;;;;;6.40;5.80;;;8.10;99.90;;;;;;5251219;27;20237;-52
2024/04/25 06:24:08;;;;;;;6.07;4.80;;;8.30;99.90;;;;;;5256631;27;20797;-60
2024/04/25 06:26:34;;;;;;;7.40;5.83;;;8.70;99.90;;;;;;5240591;27;20526;-60
2024/04/25 06:29:00;;;;;;;9.57;6.40;;;8.60;99.90;;;;;;5238478;27;20233;-53
2024/04/25 06:31:26;;;;;;;6.63;6.03;;;8.80;99.90;;;;;;5259038;27;21043;-53
2024/04/25 06:34:00;;;;;;;7.37;5.73;;;8.40;99.90;;;;;;5248216;27;20620;-55
2024/04/25 06:36:27;;;;;;;8.10;6.57;;;8.10;99.90;;;;;;5238498;27;20253;-54
2024/04/25 06:38:52;;;;;;;8.73;7.10;;;8.20;99.90;;;;;;5252959;27;21235;-54
2024/04/25 06:41:18;;;;;;;8.10;6.77;;;8.00;99.90;;;;;;5252541;27;20459;-55
2024/04/25 06:43:43;;;;;;;7.10;6.40;;;8.10;99.90;;;;;;5261146;27;20635;-52
2024/04/25 06:46:09;;;;;;;8.67;7.47;;;7.90;99.90;;;;;;5241037;27;20246;-63
2024/04/25 06:48:35;;;;;;;11.70;7.67;;;8.20;99.90;;;;;;5242036;27;20279;-60
2024/04/25 06:51:02;;;;;;;8.57;7.67;;;7.90;99.90;;;;;;5250965;27;20396;-56
2024/04/25 06:53:28;;;;;;;9.10;8.20;;;7.80;99.90;;;;;;5244291;27;20226;-56
2024/04/25 06:55:54;;;;;;;9.53;7.70;;;7.90;99.90;;;;;;5241803;27;20550;-55
2024/04/25 06:58:20;;;;;;;11.13;9.10;;;8.10;99.90;;;;;;5241137;27;20229;-56
2024/04/25 07:00:45;;;;;;;9.30;8.40;;;7.90;99.90;;;;;;5241212;27;20536;-56
2024/04/25 07:03:13;;;;;;;12.63;9.00;;;8.00;99.90;;;;;;5240965;27;20513;-58
2024/04/25 07:05:38;;;;;;;12.60;9.93;;;8.20;99.90;;;;;;5241196;27;20319;-52
2024/04/25 07:08:05;;;;;;;11.13;9.53;;;8.10;99.90;;;;;;5253009;27;20477;-55
2024/04/25 07:10:30;;;;;;;10.40;7.80;;;7.80;99.90;;;;;;5255744;27;21715;-54
2024/04/25 07:12:56;;;;;;;10.57;7.57;;;7.60;99.90;;;;;;5256559;27;20470;-54
2024/04/25 07:15:24;;;;;;;11.07;8.27;;;7.40;99.90;;;;;;5239424;27;20624;-58
2024/04/25 07:17:52;;;;;;;11.53;8.80;;;7.50;99.90;;;;;;5239877;27;20241;-60
2024/04/25 07:20:17;;;;;;;9.67;7.47;;;7.60;99.90;;;;;;5240054;27;20534;-57
2024/04/25 07:22:43;;;;;;;9.00;7.77;;;7.80;99.90;;;;;;5251243;27;20467;-61
2024/04/25 07:25:11;;;;;;;8.33;7.33;;;7.70;99.90;;;;;;5240320;27;20222;-61
2024/04/25 07:27:38;;;;;;;7.83;7.03;;;7.90;99.90;;;;;;5254365;27;20227;-61
2024/04/25 07:30:04;;;;;;;9.27;7.60;;;7.60;99.90;;;;;;5240590;27;20514;-58
2024/04/25 07:32:30;;;;;;;8.47;7.03;;;7.80;99.90;;;;;;5240306;27;20492;-60
2024/04/25 07:34:55;;;;;;;7.03;6.17;;;7.80;99.90;;;;;;5250668;27;20530;-60
2024/04/25 07:37:24;;;;;;;8.43;6.80;;;7.70;99.90;;;;;;5239742;27;20233;-60
2024/04/25 07:39:49;;;;;;;7.40;6.70;;;7.60;99.90;;;;;;5239770;27;20302;-60
2024/04/25 07:42:15;;;;;;;7.53;6.73;;;7.60;99.90;;;;;;5240355;27;20513;-61
2024/04/25 07:44:41;;;;;;;10.07;6.97;;;7.60;99.90;;;;;;5240142;27;20276;-60
2024/04/25 07:47:08;;;;;;;8.93;7.00;;;7.60;99.90;;;;;;5240691;27;20547;-61
2024/04/25 07:49:34;;;;;;;6.30;5.67;;;7.70;99.90;;;;;;5240351;27;20472;-61
2024/04/25 07:51:59;;;;;;;6.63;5.87;;;7.50;99.90;;;;;;5249645;27;20821;-61
2024/04/25 07:54:25;;;;;;;8.30;6.37;;;7.60;99.90;;;;;;5239873;27;20332;-62
2024/04/25 07:56:51;;;;;;;6.77;6.17;;;7.80;99.90;;;;;;5240380;27;20281;-60
2024/04/25 07:59:16;;;;;;;6.70;5.87;;;7.60;99.90;;;;;;5240301;27;20288;-60
2024/04/25 08:01:42;;;;;;;10.00;6.90;;;7.70;99.90;;;;;;5240172;27;20248;-60
2024/04/25 08:04:10;;;;;;;6.80;6.10;;;7.70;99.90;;;;;;5210942;27;20834;-61
2024/04/25 08:06:36;;;;;;;7.13;6.40;;;7.80;99.90;;;;;;5240083;27;20272;-60
2024/04/25 08:09:02;;;;;;;7.67;5.57;;;7.60;99.90;;;;;;5241760;27;20476;-59
2024/04/25 08:11:27;;;;;;;10.60;6.80;;;7.30;99.90;;;;;;5242202;27;20464;-60
2024/04/25 08:13:53;;;;;;;5.73;5.23;;;7.40;99.90;;;;;;5240300;27;20451;-60
2024/04/25 08:16:18;;;;;;;7.63;6.43;;;7.40;99.90;;;;;;5240007;27;20272;-58
2024/04/25 08:18:44;;;;;;;6.47;5.87;;;7.40;99.90;;;;;;5240524;27;20266;-62
2024/04/25 08:21:10;;;;;;;7.00;6.30;;;7.50;99.90;;;;;;5240267;27;20284;-60
2024/04/25 08:23:35;;;;;;;7.17;6.37;;;7.70;99.90;;;;;;5240280;27;20788;-61
2024/04/25 08:26:03;;;;;;;8.40;6.10;;;7.50;99.90;;;;;;5251888;27;20239;-60
2024/04/25 08:28:29;;;;;;;6.33;5.73;;;7.60;99.90;;;;;;5239709;27;20237;-61
2024/04/25 08:30:55;;;;;;;6.20;5.10;;;7.90;99.90;;;;;;5239741;27;20463;-61
2024/04/25 08:33:20;;;;;;;6.70;4.73;;;8.20;99.90;;;;;;5239988;27;20235;-61
2024/04/25 08:35:46;;;;;;;6.67;6.03;;;8.00;99.90;;;;;;5239964;27;20583;-60
2024/04/25 08:38:11;;;;;;;5.87;5.37;;;8.00;99.90;;;;;;5240103;27;20275;-60
2024/04/25 08:40:37;;;;;;;5.87;5.37;;;8.30;99.90;;;;;;5239841;27;20235;-60
2024/04/25 08:43:03;;;;;;;9.70;5.03;;;8.70;99.90;;;;;;5249446;27;20237;-60
2024/04/25 08:45:30;;;;;;;7.67;5.90;;;8.90;99.90;;;;;;5239720;27;20724;-59
2024/04/25 08:47:58;;;;;;;5.57;4.87;;;8.80;99.90;;;;;;5240087;27;21051;-60
2024/04/25 08:50:27;;;;;;;6.03;5.17;;;9.00;99.90;;;;;;5239674;27;20473;-59
2024/04/25 08:52:54;;;;;;;7.23;4.20;;;9.20;99.90;;;;;;5246358;27;20475;-61
2024/04/25 08:55:21;;;;;;;8.47;5.03;;;8.70;99.90;;;;;;5239371;27;20487;-60
2024/04/25 08:57:47;;;;;;;5.97;5.37;;;8.90;99.90;;;;;;5240177;27;20488;-56
2024/04/25 09:00:13;;;;;;;5.67;5.17;;;9.20;99.90;;;;;;5239475;27;20529;-59
2024/04/25 09:02:40;;;;;;;6.87;5.67;;;9.40;99.90;;;;;;5238973;27;20250;-60
2024/04/25 09:05:11;;;;;;;5.80;4.73;;;9.40;99.90;;;;;;5239692;27;20525;-58
2024/04/25 09:07:39;;;;;;;5.73;5.17;;;8.90;99.90;;;;;;5239837;27;20473;-61
2024/04/25 09:10:05;;;;;;;5.10;4.50;;;8.70;99.90;;;;;;5239618;27;20960;-61
2024/04/25 09:12:33;;;;;;;6.40;5.60;;;8.60;99.90;;;;;;5246150;27;20536;-62
2024/04/25 09:14:59;;;;;;;5.60;5.00;;;8.80;99.90;;;;;;5239402;27;21046;-59
2024/04/25 09:17:25;;;;;;;6.03;5.43;;;9.20;99.90;;;;;;5239249;27;20457;-59
2024/04/25 09:19:57;;;;;;;5.90;5.30;;;9.70;99.90;;;;;;5239637;27;20268;-59
2024/04/25 09:22:22;;;;;;;6.13;5.00;;;9.90;99.90;;;;;;5239134;27;20521;-61
2024/04/25 09:24:48;;;;;;;4.73;4.07;;;10.20;99.90;;;;;;5239728;27;20508;-59
2024/04/25 09:27:13;;;;;;;5.03;4.53;;;10.80;99.90;;;;;;5252214;27;20237;-60
2024/04/25 09:29:40;;;;;;;5.90;5.00;;;10.20;99.90;;;;;;5248681;27;20237;-61
2024/04/25 09:32:09;;;;;;;5.57;5.17;;;9.80;99.90;;;;;;5244703;27;20433;-60
2024/04/25 09:34:35;;;;;;;7.20;6.47;;;9.80;99.90;;;;;;5247369;27;20611;-60
2024/04/25 09:37:03;;;;;;;5.20;4.70;;;9.80;99.90;;;;;;5240035;27;20454;-60
2024/04/25 09:39:28;;;;;;;4.50;3.73;;;9.90;99.90;;;;;;5235608;27;20515;-59
2024/04/25 09:41:55;;;;;;;5.23;4.73;;;9.80;99.90;;;;;;5242442;27;20461;-60
2024/04/25 09:44:21;;;;;;;6.47;4.77;;;9.50;99.90;;;;;;5236789;27;20226;-61
2024/04/25 09:46:54;;;;;;;10.57;6.17;;;9.50;99.90;;;;;;5239390;27;20521;-59
2024/04/25 09:49:24;;;;;;;8.87;6.80;;;9.80;99.90;;;;;;5237011;27;20492;-59
2024/04/25 09:52:04;;;;;;;5.60;5.10;;;10.30;99.90;;;;;;5250374;27;21339;-60
2024/04/25 09:54:40;;;;;;;4.70;4.30;;;10.00;99.90;;;;;;5259419;27;21418;-60
2024/04/25 09:57:09;;;;;;;4.33;3.93;;;10.00;99.90;;;;;;5243638;27;20473;-59
2024/04/25 09:59:59;;;;;;;4.20;3.80;;;9.90;99.90;;;;;;5237821;27;20461;-60
2024/04/25 10:02:25;;;;;;;6.00;4.10;;;9.80;99.90;;;;;;5235892;27;20530;-59
2024/04/25 10:04:51;;;;;;;4.53;4.13;;;9.50;99.90;;;;;;5249323;27;20461;-59
2024/04/25 10:07:19;;;;;;;5.47;5.00;;;9.70;99.90;;;;;;5247222;27;20522;-60
2024/04/25 10:09:46;;;;;;;5.50;4.33;;;9.70;99.90;;;;;;5250634;27;20484;-61
2024/04/25 10:12:22;;;;;;;6.37;4.90;;;9.60;99.90;;;;;;5223840;27;21437;-59
2024/04/25 10:15:00;;;;;;;5.07;4.20;;;9.30;99.90;;;;;;5260659;27;20821;-60
2024/04/25 10:17:30;;;;;;;5.97;4.37;;;9.20;99.90;;;;;;5254091;27;20539;-61
2024/04/25 10:19:59;;;;;;;4.20;3.30;;;8.90;99.90;;;;;;5261933;27;20592;-61
2024/04/25 10:22:25;;;;;;;4.07;3.43;;;9.00;99.90;;;;;;5249196;27;20533;-60
2024/04/25 10:24:52;;;;;;;3.97;3.57;;;9.10;99.90;;;;;;5250643;27;20582;-58
2024/04/25 10:27:18;;;;;;;4.37;3.97;;;9.30;99.90;;;;;;5254603;27;20516;-57
2024/04/25 10:29:49;;;;;;;3.90;3.50;;;9.20;99.90;;;;;;5261262;27;20516;-60
2024/04/25 10:32:14;;;;;;;4.20;3.80;;;9.30;99.90;;;;;;5249588;27;20612;-61
2024/04/25 10:34:40;;;;;;;4.77;3.20;;;9.50;99.90;;;;;;5276802;27;20475;-60
2024/04/25 10:37:06;;;;;;;3.13;2.83;;;9.80;99.90;;;;;;5261707;27;20350;-60
2024/04/25 10:39:31;;;;;;;2.53;2.30;;;9.80;99.90;;;;;;5263980;27;20279;-60
2024/04/25 10:41:57;;;;;;;2.40;2.20;;;10.40;99.90;;;;;;5258593;27;20229;-62
2024/04/25 10:44:22;;;;;;;2.60;2.40;;;10.50;99.90;;;;;;5249650;27;20281;-60
2024/04/25 10:46:48;;;;;;;2.37;2.17;;;11.10;99.90;;;;;;5260897;27;20237;-59
2024/04/25 10:49:14;;;;;;;2.40;2.03;;;11.20;99.90;;;;;;5255509;27;20313;-59
2024/04/25 10:51:40;;;;;;;1.50;1.40;;;11.60;99.90;;;;;;5253948;27;20240;-60
2024/04/25 10:54:06;;;;;;;1.90;1.60;;;11.80;98.30;;;;;;5250090;27;20246;-59
2024/04/25 10:56:32;;;;;;;7.30;2.40;;;12.00;96.60;;;;;;5252917;27;20573;-60
2024/04/25 10:58:58;;;;;;;2.23;2.00;;;12.50;97.00;;;;;;5262751;27;20677;-61
2024/04/25 11:01:24;;;;;;;2.03;1.50;;;12.20;98.80;;;;;;5255234;27;20236;-60
2024/04/25 11:04:01;;;;;;;5.10;1.63;;;12.40;98.80;;;;;;5249819;27;20585;-61
2024/04/25 11:06:29;;;;;;;1.90;1.80;;;12.50;94.50;;;;;;5249465;27;20488;-61
2024/04/25 11:08:55;;;;;;;1.90;1.63;;;13.10;92.30;;;;;;5251832;27;21044;-61
2024/04/25 11:11:21;;;;;;;2.40;2.23;;;12.90;93.10;;;;;;5259722;27;20479;-60
2024/04/25 11:13:48;;;;;;;3.30;2.07;;;12.40;93.30;;;;;;5269146;27;20525;-61
2024/04/25 11:16:14;;;;;;;2.50;2.30;;;12.00;95.90;;;;;;5265482;27;21270;-59
2024/04/25 11:18:40;;;;;;;4.27;2.83;;;11.60;95.70;;;;;;5237837;27;20467;-61
2024/04/25 11:21:07;;;;;;;3.47;3.10;;;11.20;96.70;;;;;;5258250;27;20467;-61
2024/04/25 11:23:33;;;;;;;3.60;3.30;;;11.10;98.70;;;;;;5260476;27;20350;-67
2024/04/25 11:26:02;;;;;;;4.27;3.23;;;10.80;99.90;;;;;;5256624;27;20547;-63
2024/04/25 11:28:31;;;;;;;3.57;3.17;;;10.70;99.90;;;;;;5265841;27;20583;-59
2024/04/25 11:30:58;;;;;;;6.50;3.70;;;10.60;99.90;;;;;;5255786;27;20531;-58
2024/04/25 11:33:25;;;;;;;3.70;3.40;;;10.80;99.90;;;;;;5232471;27;20465;-61
2024/04/25 11:35:52;;;;;;;5.83;4.07;;;11.30;99.90;;;;;;5245526;27;20477;-59
2024/04/25 11:38:17;;;;;;;4.33;3.60;;;11.50;99.90;;;;;;5261798;27;20535;-60
2024/04/25 11:40:45;;;;;;;4.13;3.73;;;11.50;99.90;;;;;;5246990;27;20465;-60
2024/04/25 11:43:14;;;;;;;4.23;3.83;;;11.30;99.90;;;;;;5228921;27;20286;-60
2024/04/25 11:45:44;;;;;;;3.63;3.33;;;11.40;99.90;;;;;;5242647;27;20524;-60
2024/04/25 11:48:18;;;;;;;4.80;3.60;;;11.00;99.90;;;;;;5231273;27;20476;-59
2024/04/25 11:50:47;;;;;;;4.70;3.93;;;10.90;99.90;;;;;;5244041;27;20634;-59
2024/04/25 11:53:13;;;;;;;4.23;3.93;;;10.70;99.90;;;;;;5242728;27;20594;-62
2024/04/25 11:55:41;;;;;;;4.40;4.00;;;10.70;99.90;;;;;;5242586;27;20849;-61
2024/04/25 11:58:07;;;;;;;5.43;4.90;;;10.70;99.90;;;;;;5242399;27;20238;-61
2024/04/25 12:00:37;;;;;;;5.23;4.20;;;10.90;99.90;;;;;;5244509;27;20517;-60
2024/04/25 12:03:03;;;;;;;4.30;3.90;;;10.90;99.90;;;;;;5242980;27;20505;-60
2024/04/25 12:05:29;;;;;;;5.17;4.03;;;10.90;99.90;;;;;;5249157;27;20477;-60
2024/04/25 12:08:00;;;;;;;4.07;3.70;;;11.40;99.90;;;;;;5252846;27;20482;-60
2024/04/25 12:10:30;;;;;;;4.50;4.10;;;11.70;99.90;;;;;;5248319;27;20833;-62
2024/04/25 12:12:55;;;;;;;5.00;4.20;;;11.50;99.90;;;;;;5243110;27;20513;-61
2024/04/25 12:15:21;;;;;;;4.20;3.80;;;11.60;99.90;;;;;;5242835;27;20528;-61
2024/04/25 12:17:46;;;;;;;4.03;3.00;;;11.70;98.60;;;;;;5242395;27;20331;-65
2024/04/25 12:20:12;;;;;;;5.43;3.10;;;11.80;99.80;;;;;;5234094;27;20383;-61
2024/04/25 12:22:38;;;;;;;2.77;2.57;;;11.90;98.30;;;;;;5245795;27;20338;-68
2024/04/25 12:25:04;;;;;;;3.93;3.50;;;11.80;96.60;;;;;;5240238;27;20481;-63
2024/04/25 12:27:29;;;;;;;3.60;3.30;;;11.90;96.30;;;;;;5242375;27;20229;-61
2024/04/25 12:29:55;;;;;;;3.50;3.00;;;12.10;96.20;;;;;;5242486;27;20469;-62
2024/04/25 12:32:20;;;;;;;3.80;3.30;;;12.40;96.30;;;;;;5243450;27;20681;-62
2024/04/25 12:34:46;;;;;;;3.67;3.27;;;12.10;94.40;;;;;;5244327;27;20355;-61
2024/04/25 12:37:12;;;;;;;3.33;2.90;;;11.70;95.80;;;;;;5252777;27;20249;-60
2024/04/25 12:39:41;;;;;;;4.60;4.10;;;11.30;96.50;;;;;;5238827;27;20249;-61
2024/04/25 12:42:08;;;;;;;3.20;2.90;;;11.20;97.30;;;;;;5264180;27;20347;-60
2024/04/25 12:44:33;;;;;;;9.87;3.03;;;11.20;98.20;;;;;;5261836;27;20455;-63
2024/04/25 12:46:59;;;;;;;3.30;3.00;;;11.30;98.30;;;;;;5250364;27;21068;-60
2024/04/25 12:49:32;;;;;;;2.77;2.57;;;11.40;96.70;;;;;;5262287;27;20377;-64